Time;durP1;ratioP1;P1;durP2;ratioP2;P2;SDS_P1;SDS_P2;PMS_P1;PMS_P2;Temp;Humidity;BMP_temperature;BMP_pressure;BME280_temperature;BME280_humidity;BME280_pressure;Samples;Min_cycle;Max_cycle;Signal;HPM_P1;HPM_P2
2021/09/29 00:02:13;;;;;;;19.17;17.47;;;11.30;99.90;;;;;;4858598;29;20995;-70
2021/09/29 00:04:40;;;;;;;19.83;17.60;;;11.30;99.90;;;;;;4909625;28;20462;-70
2021/09/29 00:07:07;;;;;;;17.87;16.30;;;11.30;99.90;;;;;;4973096;28;20479;-72
2021/09/29 00:09:34;;;;;;;19.13;17.27;;;11.30;99.90;;;;;;5055997;28;20466;-71
2021/09/29 00:12:00;;;;;;;18.93;17.30;;;11.30;99.90;;;;;;5056237;28;20486;-72
2021/09/29 00:14:27;;;;;;;18.83;16.67;;;11.30;99.90;;;;;;5053004;28;20478;-70
2021/09/29 00:16:55;;;;;;;18.50;16.70;;;11.30;99.90;;;;;;5053038;28;20783;-71
2021/09/29 00:19:24;;;;;;;18.37;16.67;;;11.30;99.90;;;;;;5047495;28;20571;-69
2021/09/29 00:21:51;;;;;;;19.33;17.33;;;11.20;99.90;;;;;;5053391;28;20499;-70
2021/09/29 00:24:18;;;;;;;19.10;17.23;;;11.20;99.90;;;;;;5051356;28;20487;-70
2021/09/29 00:26:45;;;;;;;19.17;17.70;;;11.20;99.90;;;;;;5060666;28;20499;-70
2021/09/29 00:29:12;;;;;;;22.27;17.67;;;11.20;99.90;;;;;;5050514;28;20467;-73
2021/09/29 00:31:40;;;;;;;19.40;17.50;;;11.10;99.90;;;;;;5054590;28;20466;-69
2021/09/29 00:34:09;;;;;;;19.50;17.53;;;11.10;99.90;;;;;;5056180;28;20944;-69
2021/09/29 00:36:39;;;;;;;19.77;17.00;;;11.00;99.90;;;;;;5054292;28;20833;-73
2021/09/29 00:39:07;;;;;;;18.83;17.27;;;11.00;99.90;;;;;;5053321;28;20471;-69
2021/09/29 00:41:34;;;;;;;21.80;18.50;;;11.00;99.90;;;;;;5056906;28;20455;-69
2021/09/29 00:44:02;;;;;;;18.77;17.27;;;11.00;99.90;;;;;;5059491;28;20468;-73
2021/09/29 00:46:28;;;;;;;19.17;17.50;;;10.90;99.90;;;;;;5054310;28;20580;-70
2021/09/29 00:48:55;;;;;;;20.07;17.37;;;10.90;99.90;;;;;;5059666;28;20470;-69
2021/09/29 00:51:22;;;;;;;19.40;17.67;;;11.00;99.90;;;;;;5056348;28;20467;-70
2021/09/29 00:53:52;;;;;;;18.07;16.63;;;10.90;99.90;;;;;;5062653;28;20466;-71
2021/09/29 00:56:20;;;;;;;18.47;16.27;;;10.90;99.90;;;;;;5058413;28;20463;-69
2021/09/29 00:58:47;;;;;;;16.93;15.63;;;10.90;99.90;;;;;;5059634;28;20462;-70
2021/09/29 01:01:14;;;;;;;18.27;16.87;;;10.90;99.90;;;;;;5063518;28;20505;-69
2021/09/29 01:03:42;;;;;;;18.80;17.10;;;10.90;99.90;;;;;;5062240;28;20587;-69
2021/09/29 01:06:16;;;;;;;18.93;17.17;;;10.90;99.90;;;;;;5051325;28;20837;-69
2021/09/29 01:08:46;;;;;;;17.87;16.27;;;10.80;99.90;;;;;;5056905;28;21015;-70
2021/09/29 01:11:23;;;;;;;19.00;17.00;;;10.80;99.90;;;;;;5056550;28;20506;-72
2021/09/29 01:13:58;;;;;;;22.13;17.10;;;10.80;99.90;;;;;;5050374;28;20463;-70
2021/09/29 01:16:27;;;;;;;19.70;16.40;;;10.80;99.90;;;;;;5058230;28;20489;-70
2021/09/29 01:18:58;;;;;;;18.37;16.60;;;10.80;99.90;;;;;;5052189;28;20458;-71
2021/09/29 01:21:28;;;;;;;17.80;15.67;;;10.80;99.90;;;;;;5063412;28;20466;-71
2021/09/29 01:24:06;;;;;;;22.03;16.50;;;10.80;99.90;;;;;;5064129;28;20457;-73
2021/09/29 01:26:37;;;;;;;18.50;16.87;;;10.80;99.90;;;;;;5058198;28;20490;-74
2021/09/29 01:29:06;;;;;;;17.23;16.03;;;10.80;99.90;;;;;;5056655;28;20477;-69
2021/09/29 01:31:34;;;;;;;18.13;16.60;;;10.90;99.90;;;;;;5061003;28;20566;-71
2021/09/29 01:34:02;;;;;;;18.50;16.97;;;10.90;99.90;;;;;;5058725;28;21346;-71
2021/09/29 01:36:30;;;;;;;17.37;15.70;;;10.90;99.90;;;;;;5057086;28;20458;-69
2021/09/29 01:38:59;;;;;;;17.53;16.00;;;11.00;99.90;;;;;;5059271;28;20467;-72
2021/09/29 01:41:29;;;;;;;19.50;17.40;;;10.90;99.90;;;;;;5053792;28;20455;-70
2021/09/29 01:43:58;;;;;;;26.13;16.13;;;11.00;99.90;;;;;;5054648;28;21218;-71
2021/09/29 01:46:26;;;;;;;17.23;15.50;;;11.00;99.90;;;;;;5053956;28;20915;-69
2021/09/29 01:49:02;;;;;;;20.20;16.20;;;11.00;99.90;;;;;;5057353;28;20818;-70
2021/09/29 01:51:31;;;;;;;17.43;15.60;;;11.00;99.90;;;;;;5059558;28;20472;-70
2021/09/29 01:54:00;;;;;;;22.23;15.80;;;11.10;99.90;;;;;;5058159;28;20463;-70
2021/09/29 01:56:28;;;;;;;18.17;15.53;;;11.10;99.90;;;;;;5053965;28;20459;-70
2021/09/29 01:58:57;;;;;;;16.87;15.33;;;11.10;99.90;;;;;;5065732;28;20533;-69
2021/09/29 02:01:24;;;;;;;17.67;16.17;;;11.10;99.90;;;;;;5061214;28;20459;-71
2021/09/29 02:03:51;;;;;;;18.00;16.17;;;11.10;99.90;;;;;;5056315;28;20466;-72
2021/09/29 02:06:18;;;;;;;17.63;15.80;;;11.10;99.90;;;;;;5055069;28;20492;-70
2021/09/29 02:08:45;;;;;;;18.30;16.87;;;11.10;99.90;;;;;;5054137;28;20455;-74
2021/09/29 02:11:12;;;;;;;18.30;16.90;;;11.00;99.90;;;;;;5054526;28;20498;-72
2021/09/29 02:13:39;;;;;;;18.50;16.67;;;11.00;99.90;;;;;;5058656;28;20455;-72
2021/09/29 02:16:07;;;;;;;17.93;16.23;;;11.00;99.90;;;;;;5055762;28;20482;-70
2021/09/29 02:18:34;;;;;;;19.00;17.30;;;11.00;99.90;;;;;;5060378;28;20463;-72
2021/09/29 02:21:01;;;;;;;19.03;17.17;;;11.00;99.90;;;;;;5055828;28;20465;-70
2021/09/29 02:23:28;;;;;;;19.33;16.80;;;10.90;99.90;;;;;;5056204;28;20458;-71
2021/09/29 02:25:56;;;;;;;18.83;17.10;;;10.90;99.90;;;;;;5058702;28;21000;-70
2021/09/29 02:28:22;;;;;;;17.73;16.30;;;10.80;99.90;;;;;;5061365;28;20486;-72
2021/09/29 02:30:49;;;;;;;32.10;17.63;;;10.70;99.90;;;;;;5053580;28;20466;-72
2021/09/29 02:33:18;;;;;;;18.53;16.63;;;10.70;99.90;;;;;;5053269;28;20467;-71
2021/09/29 02:35:45;;;;;;;18.83;16.97;;;10.70;99.90;;;;;;5053272;28;20474;-71
2021/09/29 02:38:11;;;;;;;18.90;16.60;;;10.70;99.90;;;;;;5059056;28;20968;-70
2021/09/29 02:40:38;;;;;;;20.13;16.70;;;10.70;99.90;;;;;;5059775;28;20463;-71
2021/09/29 02:43:05;;;;;;;17.60;16.40;;;10.60;99.90;;;;;;5050986;28;20463;-70
2021/09/29 02:45:32;;;;;;;19.87;16.50;;;10.70;99.90;;;;;;5051942;28;20456;-70
2021/09/29 02:47:59;;;;;;;18.07;16.30;;;10.70;99.90;;;;;;5054291;28;20465;-72
2021/09/29 02:50:27;;;;;;;18.20;16.63;;;10.70;99.90;;;;;;5055760;28;20462;-69
2021/09/29 02:52:54;;;;;;;23.20;18.30;;;10.70;99.90;;;;;;5053958;28;20542;-69
2021/09/29 02:55:21;;;;;;;19.47;18.00;;;10.70;99.90;;;;;;5057001;28;20475;-70
2021/09/29 02:57:48;;;;;;;18.87;16.97;;;10.70;99.90;;;;;;5055605;28;20453;-70
2021/09/29 03:00:15;;;;;;;19.00;17.27;;;10.70;99.90;;;;;;5057980;28;20491;-73
2021/09/29 03:02:42;;;;;;;19.13;17.37;;;10.70;99.90;;;;;;5058904;28;20504;-70
2021/09/29 03:05:09;;;;;;;19.60;18.10;;;10.70;99.90;;;;;;5060051;28;20462;-73
2021/09/29 03:07:37;;;;;;;18.87;17.07;;;10.70;99.90;;;;;;5054377;28;20494;-70
2021/09/29 03:10:05;;;;;;;19.63;18.10;;;10.60;99.90;;;;;;5058818;28;20469;-72
2021/09/29 03:12:32;;;;;;;19.73;18.07;;;10.50;99.90;;;;;;5054555;28;20485;-70
2021/09/29 03:14:59;;;;;;;18.87;17.53;;;10.40;99.90;;;;;;5054206;28;20486;-70
2021/09/29 03:17:26;;;;;;;19.57;17.80;;;10.40;99.90;;;;;;5056028;28;20466;-69
2021/09/29 03:19:53;;;;;;;19.97;18.00;;;10.40;99.90;;;;;;5050227;28;20474;-70
2021/09/29 03:22:20;;;;;;;24.70;17.13;;;10.40;99.90;;;;;;5052848;28;20473;-73
2021/09/29 03:24:49;;;;;;;19.27;17.70;;;10.40;99.90;;;;;;5051317;28;20465;-71
2021/09/29 03:27:16;;;;;;;18.97;17.30;;;10.40;99.90;;;;;;5056275;28;20497;-70
2021/09/29 03:29:42;;;;;;;18.40;17.00;;;10.40;99.90;;;;;;5053115;28;20475;-70
2021/09/29 03:32:10;;;;;;;21.70;16.80;;;10.30;99.90;;;;;;5051156;28;20478;-70
2021/09/29 03:34:37;;;;;;;18.90;17.37;;;10.30;99.90;;;;;;5056421;28;20446;-69
2021/09/29 03:37:04;;;;;;;23.53;17.10;;;10.40;99.90;;;;;;5056951;28;20501;-70
2021/09/29 03:39:31;;;;;;;18.13;16.60;;;10.40;99.90;;;;;;5055071;28;20461;-73
2021/09/29 03:41:59;;;;;;;19.93;17.83;;;10.40;99.90;;;;;;5051982;28;20467;-69
2021/09/29 03:44:26;;;;;;;18.73;16.93;;;10.40;99.90;;;;;;5052997;28;22215;-70
2021/09/29 03:46:53;;;;;;;20.30;18.10;;;10.30;99.90;;;;;;5058058;28;20479;-72
2021/09/29 03:49:20;;;;;;;18.93;17.33;;;10.30;99.90;;;;;;5054362;28;20472;-70
2021/09/29 03:51:48;;;;;;;19.13;17.37;;;10.40;99.90;;;;;;5056458;28;20534;-70
2021/09/29 03:54:15;;;;;;;18.40;16.83;;;10.40;99.90;;;;;;5054548;28;20474;-71
2021/09/29 03:56:42;;;;;;;19.27;17.77;;;10.30;99.90;;;;;;5055325;28;20463;-70
2021/09/29 03:59:10;;;;;;;19.97;17.90;;;10.30;99.90;;;;;;5056927;28;20462;-69
2021/09/29 04:01:38;;;;;;;20.07;18.17;;;10.30;99.90;;;;;;5053684;28;20994;-73
2021/09/29 04:04:05;;;;;;;19.30;17.27;;;10.30;99.90;;;;;;5055539;28;20462;-72
2021/09/29 04:06:32;;;;;;;19.87;18.07;;;10.30;99.90;;;;;;5051626;28;20489;-71
2021/09/29 04:09:00;;;;;;;20.30;18.10;;;10.30;99.90;;;;;;5047820;28;20486;-69
2021/09/29 04:11:27;;;;;;;19.90;18.23;;;10.30;99.90;;;;;;5053491;28;20495;-70
2021/09/29 04:13:54;;;;;;;21.00;18.13;;;10.30;99.90;;;;;;5056224;28;21051;-70
2021/09/29 04:16:22;;;;;;;20.30;18.70;;;10.30;99.90;;;;;;5048114;28;20487;-73
2021/09/29 04:18:49;;;;;;;20.10;18.40;;;10.20;99.90;;;;;;5058067;28;20804;-70
2021/09/29 04:21:15;;;;;;;19.97;18.33;;;10.20;99.90;;;;;;5056829;28;20460;-72
2021/09/29 04:23:43;;;;;;;21.07;19.37;;;10.30;99.90;;;;;;5057681;28;20459;-72
2021/09/29 04:26:10;;;;;;;20.57;19.07;;;10.30;99.90;;;;;;5052810;28;20484;-70
2021/09/29 04:28:36;;;;;;;20.17;18.30;;;10.40;99.90;;;;;;5063206;28;20467;-73
2021/09/29 04:31:04;;;;;;;21.23;19.17;;;10.50;99.90;;;;;;5053787;28;20490;-70
2021/09/29 04:33:32;;;;;;;21.27;19.07;;;10.50;99.90;;;;;;5057491;28;20468;-70
2021/09/29 04:36:00;;;;;;;17.77;16.33;;;10.70;99.90;;;;;;5057832;28;20519;-70
2021/09/29 04:38:26;;;;;;;17.67;16.30;;;10.70;99.90;;;;;;5059463;28;20469;-69
2021/09/29 04:40:54;;;;;;;20.43;17.67;;;10.80;99.90;;;;;;5060217;28;20472;-70
2021/09/29 04:43:21;;;;;;;18.43;16.80;;;10.80;99.90;;;;;;5062826;28;20482;-71
2021/09/29 04:45:48;;;;;;;24.13;17.77;;;10.80;99.90;;;;;;5057978;28;20466;-72
2021/09/29 04:48:15;;;;;;;38.03;17.37;;;10.80;99.90;;;;;;5051436;28;20830;-70
2021/09/29 04:50:43;;;;;;;19.13;17.47;;;10.80;99.90;;;;;;5059475;28;20470;-70
2021/09/29 04:53:10;;;;;;;19.60;17.10;;;10.80;99.90;;;;;;5062730;28;20460;-69
2021/09/29 04:55:38;;;;;;;18.27;16.53;;;10.80;99.90;;;;;;5051593;28;20569;-69
2021/09/29 04:58:05;;;;;;;18.90;17.17;;;10.90;99.90;;;;;;5054042;28;21193;-73
2021/09/29 05:00:33;;;;;;;17.80;16.40;;;10.90;99.90;;;;;;5063319;28;20458;-71
2021/09/29 05:03:00;;;;;;;18.37;16.57;;;10.90;99.90;;;;;;5056062;28;20458;-71
2021/09/29 05:05:27;;;;;;;17.70;16.40;;;11.00;99.90;;;;;;5055271;28;20471;-70
2021/09/29 05:07:58;;;;;;;22.50;17.30;;;11.00;99.90;;;;;;5061646;28;21081;-72
2021/09/29 05:10:31;;;;;;;18.03;16.33;;;11.00;99.90;;;;;;5054577;28;20467;-70
2021/09/29 05:12:59;;;;;;;17.83;16.40;;;11.10;99.90;;;;;;5056705;28;21047;-70
2021/09/29 05:15:26;;;;;;;18.20;16.80;;;11.20;99.90;;;;;;5056412;28;20486;-69
2021/09/29 05:17:53;;;;;;;22.27;16.20;;;11.20;99.90;;;;;;5055426;28;20471;-69
2021/09/29 05:20:20;;;;;;;18.33;16.40;;;11.30;99.90;;;;;;5051085;28;20473;-69
2021/09/29 05:22:47;;;;;;;18.90;17.00;;;11.30;99.90;;;;;;5054938;28;20478;-70
2021/09/29 05:25:15;;;;;;;18.87;17.43;;;11.30;99.90;;;;;;5060552;28;20493;-69
2021/09/29 05:27:43;;;;;;;20.83;19.30;;;11.40;99.90;;;;;;5054691;28;20585;-69
2021/09/29 05:30:11;;;;;;;22.17;20.40;;;11.40;99.90;;;;;;5057258;28;20463;-69
2021/09/29 05:32:38;;;;;;;27.80;23.77;;;11.50;99.90;;;;;;5057553;28;20474;-72
2021/09/29 05:35:06;;;;;;;31.90;28.80;;;11.50;99.90;;;;;;5059044;28;20957;-71
2021/09/29 05:37:33;;;;;;;30.37;26.90;;;11.50;99.90;;;;;;5055593;28;20462;-68
2021/09/29 05:40:00;;;;;;;30.57;27.77;;;11.50;99.90;;;;;;5062010;28;20801;-68
2021/09/29 05:42:30;;;;;;;31.63;28.23;;;11.50;99.90;;;;;;5060421;28;20966;-69
2021/09/29 05:44:57;;;;;;;28.87;25.70;;;11.40;99.90;;;;;;5055888;28;20466;-70
2021/09/29 05:47:24;;;;;;;30.57;27.37;;;11.40;99.90;;;;;;5051671;28;20481;-71
2021/09/29 05:49:51;;;;;;;29.60;26.50;;;11.40;99.90;;;;;;5063792;28;20457;-69
2021/09/29 05:52:18;;;;;;;30.40;25.97;;;11.30;99.90;;;;;;5058708;28;20470;-69
2021/09/29 05:54:45;;;;;;;29.50;26.50;;;11.30;99.90;;;;;;5054584;28;20462;-71
2021/09/29 05:57:15;;;;;;;29.00;26.30;;;11.40;99.90;;;;;;5056021;28;20816;-69
2021/09/29 05:59:46;;;;;;;28.70;26.33;;;11.30;99.90;;;;;;5052726;28;20463;-71
2021/09/29 06:02:13;;;;;;;28.83;25.33;;;11.30;99.90;;;;;;5047673;28;20978;-69
2021/09/29 06:04:41;;;;;;;30.40;26.60;;;11.30;99.90;;;;;;5058768;28;20863;-71
2021/09/29 06:07:10;;;;;;;29.63;26.93;;;11.30;99.90;;;;;;5054964;28;20483;-69
2021/09/29 06:09:39;;;;;;;28.03;25.43;;;11.30;99.90;;;;;;5059303;28;20459;-69
2021/09/29 06:12:07;;;;;;;29.30;25.67;;;11.30;99.90;;;;;;5051807;28;21024;-70
2021/09/29 06:14:34;;;;;;;28.83;25.50;;;11.30;99.90;;;;;;5056707;28;20484;-69
2021/09/29 06:17:12;;;;;;;30.33;24.70;;;11.30;99.90;;;;;;5055572;28;20450;-70
2021/09/29 06:19:39;;;;;;;27.33;25.10;;;11.30;99.90;;;;;;5060023;28;20462;-70
2021/09/29 06:22:07;;;;;;;32.03;24.23;;;11.30;99.90;;;;;;5053441;28;20458;-69
2021/09/29 06:24:34;;;;;;;28.77;25.77;;;11.40;99.90;;;;;;5057363;28;20470;-71
2021/09/29 06:27:01;;;;;;;27.87;25.10;;;11.50;99.90;;;;;;5060531;28;20866;-69
2021/09/29 06:29:28;;;;;;;26.03;23.97;;;11.50;99.90;;;;;;5061376;28;20633;-71
2021/09/29 06:31:57;;;;;;;26.50;24.07;;;11.60;99.90;;;;;;5055344;28;21078;-69
2021/09/29 06:34:26;;;;;;;27.63;24.87;;;11.60;99.90;;;;;;5059724;28;20466;-69
2021/09/29 06:36:53;;;;;;;27.07;24.77;;;11.70;99.90;;;;;;5057500;28;20469;-71
2021/09/29 06:39:20;;;;;;;27.83;25.37;;;11.70;99.90;;;;;;5049105;28;20461;-72
2021/09/29 06:41:47;;;;;;;26.73;23.97;;;11.70;99.90;;;;;;5054287;28;20458;-70
2021/09/29 06:44:14;;;;;;;27.03;24.50;;;11.80;99.90;;;;;;5053500;28;20444;-71
2021/09/29 06:46:41;;;;;;;38.70;26.00;;;11.70;99.90;;;;;;5050068;28;20470;-71
2021/09/29 06:49:09;;;;;;;33.57;25.63;;;11.70;99.90;;;;;;5054542;28;20463;-70
2021/09/29 06:51:37;;;;;;;28.77;25.80;;;11.70;99.90;;;;;;5055292;28;20463;-70
2021/09/29 06:54:05;;;;;;;28.40;25.57;;;11.80;99.90;;;;;;5054933;28;20463;-69
2021/09/29 06:56:32;;;;;;;27.67;25.00;;;11.90;99.90;;;;;;5052242;28;20474;-69
2021/09/29 06:58:58;;;;;;;37.50;25.23;;;12.00;99.90;;;;;;5055649;28;20464;-69
2021/09/29 07:01:26;;;;;;;27.43;24.70;;;12.00;99.90;;;;;;5052677;28;20463;-69
2021/09/29 07:03:53;;;;;;;27.93;24.90;;;12.10;99.90;;;;;;5052233;28;20498;-70
2021/09/29 07:06:21;;;;;;;25.70;23.50;;;12.10;99.90;;;;;;5051038;28;20475;-70
2021/09/29 07:08:49;;;;;;;26.03;23.60;;;12.20;99.90;;;;;;5062507;28;20491;-71
2021/09/29 07:11:17;;;;;;;24.97;23.03;;;12.30;99.90;;;;;;5052855;28;20840;-70
2021/09/29 07:13:45;;;;;;;28.83;24.10;;;12.40;99.90;;;;;;5054132;28;20554;-69
2021/09/29 07:16:12;;;;;;;24.83;22.60;;;12.60;99.90;;;;;;5055632;28;20470;-70
2021/09/29 07:18:41;;;;;;;25.23;23.17;;;12.60;99.90;;;;;;5055812;28;20455;-71
2021/09/29 07:21:07;;;;;;;26.03;23.80;;;12.70;99.90;;;;;;5055406;28;20467;-70
2021/09/29 07:23:34;;;;;;;25.83;23.40;;;12.80;99.90;;;;;;5053317;28;20715;-69
2021/09/29 07:26:02;;;;;;;25.90;23.67;;;12.80;99.90;;;;;;5053935;28;20813;-69
2021/09/29 07:28:29;;;;;;;36.20;25.60;;;12.90;99.90;;;;;;5050765;28;20855;-71
2021/09/29 07:30:56;;;;;;;27.33;24.63;;;12.80;99.90;;;;;;5051008;28;20470;-69
2021/09/29 07:33:24;;;;;;;28.90;23.13;;;12.80;99.90;;;;;;5055893;28;20470;-69
2021/09/29 07:35:51;;;;;;;25.47;22.90;;;12.80;99.90;;;;;;5051073;28;20458;-69
2021/09/29 07:38:18;;;;;;;24.60;22.37;;;12.90;99.90;;;;;;5058961;28;20478;-69
2021/09/29 07:40:45;;;;;;;23.80;21.80;;;12.90;99.90;;;;;;5050712;28;20471;-70
2021/09/29 07:43:13;;;;;;;24.23;22.43;;;12.90;99.90;;;;;;5046113;28;20458;-70
2021/09/29 07:45:40;;;;;;;24.13;21.80;;;12.90;99.90;;;;;;5044141;28;20460;-69
2021/09/29 07:48:08;;;;;;;25.77;21.50;;;13.00;99.90;;;;;;5055352;28;20487;-69
2021/09/29 07:50:35;;;;;;;22.40;20.27;;;13.00;99.90;;;;;;5055575;28;20448;-71
2021/09/29 07:53:02;;;;;;;22.80;20.90;;;13.00;99.90;;;;;;5049253;28;20471;-70
2021/09/29 07:55:30;;;;;;;21.87;19.97;;;12.90;99.90;;;;;;5057595;28;20467;-69
2021/09/29 07:57:56;;;;;;;21.90;19.27;;;12.80;99.90;;;;;;5056106;28;20470;-70
2021/09/29 08:00:26;;;;;;;20.20;18.80;;;12.90;99.90;;;;;;5050511;28;20486;-70
2021/09/29 08:02:53;;;;;;;21.17;19.47;;;13.00;99.90;;;;;;5054078;28;20452;-70
2021/09/29 08:05:21;;;;;;;20.70;19.30;;;13.00;99.90;;;;;;5055997;28;20527;-70
2021/09/29 08:07:50;;;;;;;22.00;20.03;;;13.10;99.90;;;;;;5058824;28;20495;-71
2021/09/29 08:10:19;;;;;;;21.30;19.70;;;13.20;99.90;;;;;;5062251;28;20447;-70
2021/09/29 08:12:47;;;;;;;20.80;19.50;;;13.20;99.90;;;;;;5052978;28;20486;-70
2021/09/29 08:15:15;;;;;;;21.40;19.67;;;13.20;99.90;;;;;;5056379;28;20857;-70
2021/09/29 08:17:45;;;;;;;21.47;19.57;;;13.20;99.90;;;;;;5062259;28;20459;-69
2021/09/29 08:20:15;;;;;;;20.33;18.83;;;13.10;99.90;;;;;;5059261;28;20942;-72
2021/09/29 08:22:46;;;;;;;20.10;18.53;;;13.10;99.90;;;;;;5064361;28;20467;-69
2021/09/29 08:25:23;;;;;;;20.30;18.77;;;13.10;99.90;;;;;;5056988;28;20452;-69
2021/09/29 08:28:05;;;;;;;20.90;19.10;;;13.10;99.90;;;;;;5055179;28;20485;-72
2021/09/29 08:30:45;;;;;;;21.57;19.80;;;13.20;99.90;;;;;;5057934;28;20562;-71
2021/09/29 08:33:17;;;;;;;20.40;18.80;;;13.20;99.90;;;;;;5054799;28;20456;-70
2021/09/29 08:35:53;;;;;;;19.07;17.53;;;13.20;99.90;;;;;;5061582;28;20489;-70
2021/09/29 08:38:28;;;;;;;19.50;18.20;;;13.50;99.90;;;;;;5055910;28;20467;-70
2021/09/29 08:41:04;;;;;;;18.33;17.20;;;13.70;99.90;;;;;;5057063;28;20450;-71
2021/09/29 08:43:41;;;;;;;19.20;18.10;;;14.10;99.90;;;;;;5053266;28;20465;-72
2021/09/29 08:46:15;;;;;;;19.63;18.33;;;14.30;99.90;;;;;;5059556;28;20531;-71
2021/09/29 08:48:55;;;;;;;18.00;16.93;;;14.40;99.90;;;;;;5060108;28;20478;-73
2021/09/29 08:51:51;;;;;;;18.53;17.20;;;14.40;99.90;;;;;;5050399;28;20928;-70
2021/09/29 08:54:36;;;;;;;18.93;17.10;;;14.20;99.90;;;;;;5053297;28;20451;-70
2021/09/29 08:57:24;;;;;;;18.20;17.00;;;14.00;99.90;;;;;;5050998;28;20474;-70
2021/09/29 09:16:30;;;;;;;19.50;18.00;;;13.50;99.90;;;;;;5055731;28;20505;-70
2021/09/29 09:18:58;;;;;;;19.57;18.40;;;13.60;99.90;;;;;;5062345;28;20512;-73
2021/09/29 09:21:28;;;;;;;21.87;19.67;;;13.50;99.90;;;;;;5061355;28;20466;-69
2021/09/29 09:23:55;;;;;;;19.93;18.20;;;13.20;99.90;;;;;;5059491;28;20485;-70
2021/09/29 09:26:24;;;;;;;19.90;18.67;;;13.00;99.90;;;;;;5059694;28;20843;-70
2021/09/29 09:29:03;;;;;;;19.83;18.30;;;12.80;99.90;;;;;;5049628;28;20486;-72
2021/09/29 09:31:31;;;;;;;18.80;17.60;;;12.70;99.90;;;;;;5058672;28;20997;-72
2021/09/29 09:34:02;;;;;;;18.43;17.20;;;12.70;99.90;;;;;;5058241;28;20451;-71
2021/09/29 09:36:37;;;;;;;19.20;18.00;;;12.70;99.90;;;;;;5065598;28;20861;-70
2021/09/29 09:39:06;;;;;;;18.43;17.20;;;12.80;99.90;;;;;;5065065;28;20482;-71
2021/09/29 09:41:33;;;;;;;19.00;17.80;;;12.70;99.90;;;;;;5065177;28;20944;-70
2021/09/29 09:44:02;;;;;;;19.30;18.13;;;12.60;99.90;;;;;;5058837;28;20454;-70
2021/09/29 09:46:30;;;;;;;18.50;17.50;;;12.60;99.90;;;;;;5061050;28;20776;-72
2021/09/29 09:49:02;;;;;;;18.90;17.80;;;12.50;99.90;;;;;;5064542;28;20577;-71
2021/09/29 09:51:30;;;;;;;18.40;17.30;;;12.50;99.90;;;;;;5064563;28;20550;-71
2021/09/29 09:53:59;;;;;;;19.73;18.40;;;12.50;99.90;;;;;;5066867;28;20455;-73
2021/09/29 09:56:29;;;;;;;18.90;17.73;;;12.50;99.90;;;;;;5057409;28;20474;-70
2021/09/29 09:58:58;;;;;;;19.33;17.90;;;12.60;99.90;;;;;;5058330;28;20467;-72
2021/09/29 10:01:28;;;;;;;18.67;17.57;;;12.60;99.90;;;;;;5057302;28;20463;-70
2021/09/29 10:03:56;;;;;;;18.63;17.63;;;12.70;99.90;;;;;;5055496;28;20467;-74
2021/09/29 10:06:24;;;;;;;18.47;17.37;;;12.80;99.90;;;;;;5053991;28;20451;-72
2021/09/29 10:08:59;;;;;;;18.43;17.33;;;12.90;99.90;;;;;;5056972;28;20479;-71
2021/09/29 10:11:31;;;;;;;19.50;18.40;;;13.10;99.90;;;;;;5063105;28;20515;-71
2021/09/29 10:27:58;;;;;;;16.03;15.20;;;14.10;99.90;;;;;;5060878;28;20482;-72
2021/09/29 10:30:29;;;;;;;16.50;15.60;;;14.20;99.90;;;;;;5057391;28;20463;-70
2021/09/29 10:33:00;;;;;;;16.40;15.43;;;14.10;99.90;;;;;;5055259;28;20787;-71
2021/09/29 10:35:46;;;;;;;16.30;15.40;;;14.00;99.90;;;;;;5064542;28;21057;-71
2021/09/29 10:41:12;;;;;;;16.33;15.53;;;13.80;99.90;;;;;;5060138;28;20580;-72
2021/09/29 10:43:59;;;;;;;16.10;15.10;;;13.70;99.90;;;;;;5058296;28;20447;-71
2021/09/29 10:46:39;;;;;;;15.87;15.10;;;13.70;99.90;;;;;;5063620;28;20458;-70
2021/09/29 10:49:26;;;;;;;15.10;14.40;;;13.90;99.90;;;;;;5054925;28;20486;-70
2021/09/29 11:03:46;;;;;;;15.10;14.40;;;14.20;99.90;;;;;;5054032;28;20441;-70
2021/09/29 11:06:51;;;;;;;17.77;16.67;;;14.40;99.90;;;;;;5061483;28;20457;-71
2021/09/29 11:31:45;;;;;;;18.20;17.30;;;15.60;99.90;;;;;;5049510;28;20485;-70
2021/09/29 11:34:20;;;;;;;18.63;17.60;;;15.60;99.90;;;;;;5060131;28;20722;-72
2021/09/29 11:37:15;;;;;;;18.47;17.40;;;15.50;99.90;;;;;;5056086;28;20455;-72
2021/09/29 11:40:04;;;;;;;17.50;16.57;;;15.60;99.90;;;;;;5059428;28;20455;-73
2021/09/29 12:10:27;;;;;;;16.17;15.37;;;17.30;99.90;;;;;;5057027;28;20541;-70
2021/09/29 12:12:55;;;;;;;16.40;15.50;;;17.40;99.90;;;;;;5058165;28;20534;-71
2021/09/29 12:15:22;;;;;;;16.20;15.40;;;17.00;99.90;;;;;;5059878;28;20583;-71
2021/09/29 12:17:50;;;;;;;15.50;14.60;;;16.70;99.90;;;;;;5056037;28;20474;-70
2021/09/29 12:20:21;;;;;;;14.73;13.70;;;16.80;99.90;;;;;;5053423;28;20989;-70
2021/09/29 12:22:54;;;;;;;16.43;15.43;;;17.20;99.90;;;;;;5057921;28;20459;-73
2021/09/29 12:25:29;;;;;;;16.93;15.77;;;17.10;99.90;;;;;;5055065;28;20502;-72
2021/09/29 12:28:14;;;;;;;59.97;37.70;;;17.00;99.90;;;;;;5064399;28;20453;-71
2021/09/29 12:30:44;;;;;;;17.90;16.70;;;17.00;99.90;;;;;;5056722;28;20550;-70
2021/09/29 12:33:15;;;;;;;15.40;14.60;;;17.40;99.90;;;;;;5052917;28;20451;-71
2021/09/29 12:35:49;;;;;;;15.97;15.07;;;17.60;99.90;;;;;;5055998;28;20455;-70
2021/09/29 12:38:19;;;;;;;15.93;15.03;;;15.10;99.90;;;;;;5061805;28;20558;-70
2021/09/29 12:40:49;;;;;;;19.60;17.43;;;13.60;99.90;;;;;;5058700;28;20455;-69
2021/09/29 12:43:20;;;;;;;19.63;18.40;;;12.60;99.90;;;;;;5063189;28;20466;-71
2021/09/29 12:45:49;;;;;;;19.73;18.37;;;11.70;99.90;;;;;;5064585;28;20726;-69
2021/09/29 12:48:20;;;;;;;17.90;17.00;;;11.30;99.90;;;;;;5066738;28;20602;-69
2021/09/29 12:50:52;;;;;;;18.70;17.60;;;11.10;99.90;;;;;;5059458;28;20455;-71
2021/09/29 12:53:26;;;;;;;17.60;16.50;;;11.00;99.90;;;;;;5058057;28;20545;-69
2021/09/29 12:55:57;;;;;;;17.97;16.87;;;10.80;99.90;;;;;;5057253;28;20517;-69
2021/09/29 12:58:24;;;;;;;18.03;16.80;;;10.90;99.90;;;;;;5065092;28;20486;-69
2021/09/29 13:00:52;;;;;;;16.90;16.00;;;11.00;99.90;;;;;;5059403;28;20466;-69
2021/09/29 13:03:20;;;;;;;16.87;16.00;;;11.20;99.90;;;;;;5064780;28;20479;-70
2021/09/29 13:05:47;;;;;;;18.33;17.03;;;11.30;99.90;;;;;;5063554;28;20462;-70
2021/09/29 13:08:14;;;;;;;17.40;16.40;;;11.30;99.90;;;;;;5058633;28;20573;-70
2021/09/29 13:10:43;;;;;;;16.20;15.30;;;11.40;99.90;;;;;;5059639;28;20447;-70
2021/09/29 13:13:11;;;;;;;15.33;14.53;;;11.50;99.90;;;;;;5064935;28;20454;-69
2021/09/29 13:15:41;;;;;;;16.07;15.17;;;11.60;99.90;;;;;;5055465;28;20557;-70
2021/09/29 13:18:13;;;;;;;16.20;15.30;;;11.60;99.90;;;;;;5062992;28;20455;-70
2021/09/29 13:20:42;;;;;;;15.20;14.40;;;11.80;99.90;;;;;;5068880;28;20464;-72
2021/09/29 13:23:14;;;;;;;14.53;13.73;;;12.70;99.90;;;;;;5060439;28;20462;-71
2021/09/29 13:36:37;;;;;;;14.97;14.27;;;17.60;99.90;;;;;;5061410;28;20678;-71
2021/09/29 13:39:07;;;;;;;31.43;28.47;;;17.70;99.90;;;;;;5059142;28;20849;-70
2021/09/29 13:41:36;;;;;;;14.63;13.93;;;17.80;99.90;;;;;;5057058;28;20470;-69
2021/09/29 13:44:04;;;;;;;15.20;14.20;;;18.00;99.90;;;;;;5065433;28;20491;-73
2021/09/29 13:46:32;;;;;;;15.13;14.33;;;18.60;99.90;;;;;;5060145;28;20953;-70
2021/09/29 13:49:01;;;;;;;16.10;14.90;;;18.40;99.90;;;;;;5064372;28;21034;-70
2021/09/29 13:51:29;;;;;;;14.53;13.67;;;18.60;99.90;;;;;;5059910;28;21007;-70
2021/09/29 13:53:57;;;;;;;16.40;15.13;;;18.30;99.90;;;;;;5059951;28;20546;-71
2021/09/29 13:56:28;;;;;;;15.87;14.87;;;17.90;99.90;;;;;;5058557;28;20474;-69
2021/09/29 13:59:14;;;;;;;16.00;15.10;;;18.00;99.90;;;;;;5055580;28;21229;-70
2021/09/29 14:29:27;;;;;;;15.47;14.63;;;14.90;99.90;;;;;;5054001;28;21061;-72
2021/09/29 14:32:06;;;;;;;16.13;14.80;;;14.90;99.90;;;;;;5053253;28;20466;-71
2021/09/29 14:34:33;;;;;;;15.00;14.30;;;14.70;99.90;;;;;;5055743;28;20853;-73
2021/09/29 14:37:01;;;;;;;15.60;14.90;;;14.60;99.90;;;;;;5054917;28;20459;-71
2021/09/29 14:39:29;;;;;;;15.90;15.10;;;14.60;99.90;;;;;;5057178;28;20461;-73
2021/09/29 14:41:55;;;;;;;19.40;18.13;;;15.00;99.90;;;;;;5057938;28;20494;-71
2021/09/29 14:44:23;;;;;;;15.77;14.87;;;16.00;99.90;;;;;;5055254;28;20460;-73
2021/09/29 14:46:50;;;;;;;15.83;15.03;;;17.00;99.90;;;;;;5051293;28;20492;-71
2021/09/29 14:49:18;;;;;;;14.83;14.10;;;17.60;99.90;;;;;;5063108;28;20499;-71
2021/09/29 14:51:46;;;;;;;15.83;14.67;;;17.70;99.90;;;;;;5057343;28;20800;-71
2021/09/29 14:54:13;;;;;;;16.10;15.30;;;17.40;99.90;;;;;;5065109;28;20446;-72